Clayton, Washington
Current Conditions -  °F | °C
As of 9:53 AM on Saturday 25 Oct 2014 (Local Time) from KDEW Reporting Station
Clear Clear  
Wind Chill: 10°   Ceiling: Unl
Heat Index: 10°   Visibility: 10mi
Dew Point:   Wind: 10mph
Humidity: 68%   Direction: 30°NNE
Pressure: 29.68"   Gusts: NA
Location:  47.99°N, 117.56°W
Report Text: KDEW 251653Z AUTO 03009KT 10SM CLR 10/04 A2968 RMK AO2 SLP051 T01000044
Loading
Personal Weather Stations






























Interactive Weather Map
Tropical Storm Tracking
New forecast layout! Learn more

10-Day Weather Forecast

Advertisements
Track Severe Weather on mobile